Time;durP1;ratioP1;P1;durP2;ratioP2;P2;SDS_P1;SDS_P2;PMS_P1;PMS_P2;Temp;Humidity;BMP_temperature;BMP_pressure;BME280_temperature;BME280_humidity;BME280_pressure;Samples;Min_cycle;Max_cycle;Signal;HPM_P1;HPM_P2
2022/10/25 00:01:48;;;;;;;24.17;19.00;;;;;;;13.79;71.00;100650.05;1745820;81;21436;-72
2022/10/25 00:04:15;;;;;;;21.33;17.47;;;;;;;13.86;70.97;100634.98;1786797;80;21311;-73
2022/10/25 00:06:43;;;;;;;23.63;18.63;;;;;;;13.94;70.92;100634.39;1743641;80;21343;-73
2022/10/25 00:09:10;;;;;;;25.20;18.00;;;;;;;14.00;70.87;100625.23;1756573;81;21301;-73
2022/10/25 00:11:37;;;;;;;24.37;19.07;;;;;;;14.06;70.75;100626.81;1759054;80;21972;-74
2022/10/25 00:14:06;;;;;;;24.37;19.00;;;;;;;14.14;70.83;100614.12;1770537;80;21901;-73
2022/10/25 00:16:36;;;;;;;22.70;18.40;;;;;;;14.14;70.83;100614.12;1755440;81;21447;-73
2022/10/25 00:19:04;;;;;;;23.10;18.00;;;;;;;14.17;70.39;100616.79;1783320;80;21346;-74
2022/10/25 00:21:31;;;;;;;21.73;18.83;;;;;;;14.19;70.15;100622.70;1783309;80;21898;-74
2022/10/25 00:23:58;;;;;;;21.67;17.70;;;;;;;14.19;69.97;100620.02;1771942;80;21788;-74
2022/10/25 00:26:25;;;;;;;20.33;16.93;;;;;;;14.19;69.84;100624.05;1737165;82;21323;-73
2022/10/25 00:28:54;;;;;;;20.60;17.17;;;;;;;14.18;69.72;100614.36;1737183;82;21448;-73
2022/10/25 00:31:21;;;;;;;21.73;17.30;;;;;;;14.17;69.62;100613.56;1737315;82;21394;-73
2022/10/25 00:33:48;;;;;;;21.57;17.70;;;;;;;14.19;69.54;100615.98;1774458;80;21278;-73
2022/10/25 00:36:24;;;;;;;22.20;17.93;;;;;;;14.18;69.57;100611.67;1758128;80;21314;-73
2022/10/25 00:38:52;;;;;;;23.93;18.30;;;;;;;14.17;69.59;100613.56;1751800;82;21241;-74
2022/10/25 00:41:21;;;;;;;23.37;18.03;;;;;;;14.10;69.42;100610.39;1770346;81;21819;-74
2022/10/25 00:43:51;;;;;;;22.00;17.43;;;;;;;14.04;69.35;100603.44;1760630;79;21317;-73
2022/10/25 00:46:23;;;;;;;21.10;17.93;;;;;;;13.90;69.30;100593.87;1752305;80;21261;-73
2022/10/25 00:49:03;;;;;;;;;;;;;;;13.90;69.30;100593.87;1754749;80;21347;-74
2022/10/25 00:51:35;;;;;;;22.87;18.10;;;;;;;13.77;69.15;100586.42;1739270;81;20441;-77
2022/10/25 00:54:02;;;;;;;22.50;17.90;;;;;;;13.55;69.65;100588.14;1756123;81;21858;-74
2022/10/25 00:56:32;;;;;;;22.23;18.10;;;;;;;13.55;69.65;100588.14;1753706;81;21366;-74
2022/10/25 00:59:02;;;;;;;22.60;18.37;;;;;;;13.53;69.72;100588.98;1742953;81;21790;-74
2022/10/25 01:01:29;;;;;;;21.43;17.33;;;;;;;13.46;69.82;100591.12;1739407;81;21442;-74
2022/10/25 01:03:59;;;;;;;24.60;19.10;;;;;;;13.47;69.99;100588.73;1736336;80;21238;-72
2022/10/25 01:06:37;;;;;;;22.07;18.20;;;;;;;13.49;70.16;100589.24;1751257;81;21901;-73
2022/10/25 01:09:10;;;;;;;22.17;18.03;;;;;;;13.53;70.29;100584.41;1764613;80;21459;-73
2022/10/25 01:11:37;;;;;;;24.15;17.80;;;;;;;13.60;70.37;100586.79;1757180;81;21326;-72
2022/10/25 01:14:05;;;;;;;21.80;16.80;;;;;;;13.64;70.32;100587.84;1762724;80;21127;-73
2022/10/25 01:17:25;;;;;;;22.53;17.93;;;;;;;13.63;70.26;100592.95;1756950;81;21795;-73
2022/10/25 01:20:24;;;;;;;23.07;19.07;;;;;;;13.54;70.25;100581.18;1739453;82;21185;-73
2022/10/25 01:23:13;;;;;;;22.57;18.30;;;;;;;13.42;70.43;100576.67;1757498;80;21371;-72
2022/10/25 01:26:08;;;;;;;22.43;17.77;;;;;;;13.42;70.63;100566.73;1758600;80;21240;-72
2022/10/25 01:29:15;;;;;;;21.93;17.67;;;;;;;13.53;70.57;100578.24;1733940;80;21282;-73
2022/10/25 01:31:51;;;;;;;27.20;17.83;;;;;;;13.52;70.48;100565.88;1746856;81;21253;-73
2022/10/25 01:34:32;;;;;;;23.07;17.80;;;;;;;13.45;70.47;100557.34;1788012;80;21390;-73
2022/10/25 01:37:23;;;;;;;22.35;18.27;;;;;;;13.36;70.53;100547.73;1737073;80;21411;-74
2022/10/25 01:40:18;;;;;;;22.80;17.63;;;;;;;13.29;70.62;100550.72;1726537;83;21054;-72
2022/10/25 01:43:08;;;;;;;21.50;16.63;;;;;;;13.23;70.72;100548.30;1722931;80;21428;-74
2022/10/25 01:45:40;;;;;;;23.10;18.17;;;;;;;13.22;70.79;100544.80;1755926;80;21858;-73
2022/10/25 01:48:14;;;;;;;22.50;17.57;;;;;;;13.21;70.87;100538.37;1749886;80;26976;-73
2022/10/25 01:50:44;;;;;;;21.87;17.10;;;;;;;13.26;70.92;100541.05;1756757;81;21533;-73
2022/10/25 01:53:11;;;;;;;21.70;17.00;;;;;;;13.23;70.96;100532.21;1706026;81;21207;-73
2022/10/25 01:55:49;;;;;;;21.37;17.13;;;;;;;13.22;70.78;100530.58;1769464;80;21532;-73
2022/10/25 01:58:25;;;;;;;20.33;16.97;;;;;;;13.18;70.67;100534.36;1756489;80;21272;-73
2022/10/25 02:01:19;;;;;;;22.07;17.17;;;;;;;13.16;70.57;100529.80;1780776;78;21352;-74
2022/10/25 02:04:14;;;;;;;21.97;17.10;;;;;;;13.16;70.49;100528.45;1747040;80;21743;-74
2022/10/25 02:06:56;;;;;;;21.30;16.23;;;;;;;13.14;70.35;100529.28;1784072;80;21319;-72
2022/10/25 02:10:10;;;;;;;22.40;17.43;;;;;;;13.12;70.22;100547.52;1735785;80;21372;-73
2022/10/25 02:13:04;;;;;;;21.68;17.52;;;;;;;13.08;70.09;100547.27;1762961;80;21305;-73
2022/10/25 02:15:45;;;;;;;20.23;16.73;;;;;;;13.05;70.12;100553.72;1728618;81;21056;-73
2022/10/25 02:18:17;;;;;;;20.40;16.10;;;;;;;13.01;70.06;100552.66;1756829;81;21219;-73
2022/10/25 02:20:44;;;;;;;21.40;16.87;;;;;;;12.94;70.00;100547.59;1758148;80;21321;-73
2022/10/25 02:23:12;;;;;;;21.33;16.87;;;;;;;12.86;69.87;100546.79;1769071;80;21150;-73
2022/10/25 02:25:39;;;;;;;19.57;16.67;;;;;;;12.78;69.90;100555.41;1780854;78;21887;-73
2022/10/25 02:28:08;;;;;;;22.63;17.87;;;;;;;12.74;69.93;100553.80;1787573;78;21733;-74
2022/10/25 02:30:35;;;;;;;22.77;17.43;;;;;;;12.71;70.00;100555.69;1774657;80;21173;-73
2022/10/25 02:33:01;;;;;;;26.33;18.33;;;;;;;12.67;70.17;100559.98;1773360;78;21358;-74
2022/10/25 02:35:28;;;;;;;20.97;17.70;;;;;;;12.61;70.37;100549.00;1787593;80;21303;-73
2022/10/25 02:37:56;;;;;;;19.87;16.87;;;;;;;12.59;70.56;100546.58;1755028;81;21312;-73
2022/10/25 02:40:23;;;;;;;21.83;16.63;;;;;;;12.59;70.55;100549.80;1734005;81;21115;-73
2022/10/25 02:42:49;;;;;;;20.40;17.20;;;;;;;12.55;70.46;100552.77;1754605;81;21349;-76
2022/10/25 02:45:16;;;;;;;21.27;16.93;;;;;;;12.53;70.40;100552.21;1787160;80;21423;-72
2022/10/25 02:47:43;;;;;;;21.53;17.03;;;;;;;12.49;70.30;100551.16;1756274;81;21310;-73
2022/10/25 02:50:10;;;;;;;21.73;16.93;;;;;;;12.43;70.27;100552.48;1783143;79;21255;-73
2022/10/25 02:52:38;;;;;;;21.30;16.83;;;;;;;12.39;70.26;100547.41;1785177;80;21922;-73
2022/10/25 02:55:06;;;;;;;23.73;17.73;;;;;;;12.36;70.29;100543.92;1788033;80;21813;-73
2022/10/25 02:57:34;;;;;;;21.43;17.60;;;;;;;12.35;70.31;100547.68;1786710;80;21307;-73
2022/10/25 03:00:07;;;;;;;21.57;17.57;;;;;;;12.32;70.37;100558.93;1787368;79;21254;-73
2022/10/25 03:02:34;;;;;;;;;;;;;;;12.29;70.44;100553.31;1761354;80;21310;-73
2022/10/25 03:05:02;;;;;;;25.97;18.77;;;;;;;12.28;70.49;100559.75;1768501;79;20144;-73
2022/10/25 03:07:30;;;;;;;22.17;18.30;;;;;;;12.25;70.61;100570.45;1756932;80;21318;-73
2022/10/25 03:09:57;;;;;;;23.07;18.30;;;;;;;12.22;70.75;100563.48;1755789;81;21301;-73
2022/10/25 03:12:25;;;;;;;21.70;17.43;;;;;;;12.21;70.94;100558.67;1782847;78;22085;-73
2022/10/25 03:14:51;;;;;;;22.47;17.60;;;;;;;12.24;71.10;100562.67;1760116;80;21678;-72
2022/10/25 03:17:19;;;;;;;21.63;17.73;;;;;;;12.26;71.26;100559.20;1787005;78;21324;-72
2022/10/25 03:19:46;;;;;;;22.00;17.73;;;;;;;12.28;71.28;100562.42;1755665;80;21384;-73
2022/10/25 03:22:13;;;;;;;24.13;16.87;;;;;;;12.27;71.22;100552.22;1768650;80;21097;-74
2022/10/25 03:24:39;;;;;;;21.70;16.43;;;;;;;12.22;71.13;100551.44;1790118;80;21230;-73
2022/10/25 03:27:06;;;;;;;21.07;15.93;;;;;;;12.13;71.07;100548.48;1756218;81;21090;-73
2022/10/25 03:29:34;;;;;;;20.00;16.40;;;;;;;12.00;71.05;100546.33;1755740;80;21507;-73
2022/10/25 03:32:01;;;;;;;19.43;15.93;;;;;;;11.83;71.19;100544.67;1788292;80;21226;-73
2022/10/25 03:34:27;;;;;;;18.67;15.67;;;;;;;11.75;71.39;100534.50;1756490;80;21074;-73
2022/10/25 03:36:56;;;;;;;20.73;15.50;;;;;;;11.72;71.61;100534.49;1757138;81;21675;-73
2022/10/25 03:39:22;;;;;;;20.87;14.03;;;;;;;11.73;71.85;100540.11;1784247;80;21053;-73
2022/10/25 03:41:49;;;;;;;24.80;13.83;;;;;;;11.79;71.99;100536.91;1776861;80;21779;-73
2022/10/25 03:44:16;;;;;;;18.70;14.33;;;;;;;11.82;72.09;100544.41;1756807;80;21098;-73
2022/10/25 03:46:42;;;;;;;23.97;13.17;;;;;;;11.82;72.20;100549.77;1756632;80;21687;-73
2022/10/25 03:49:10;;;;;;;21.97;13.33;;;;;;;11.88;72.36;100543.92;1788149;80;21479;-73
2022/10/25 03:51:37;;;;;;;15.93;13.43;;;;;;;11.91;72.50;100543.37;1761646;80;21286;-73
2022/10/25 03:54:03;;;;;;;17.93;14.83;;;;;;;11.91;72.56;100549.55;1746120;81;21738;-73
2022/10/25 03:56:31;;;;;;;16.10;13.97;;;;;;;11.93;72.75;100540.70;1765592;79;21277;-74
2022/10/25 03:58:58;;;;;;;15.33;13.73;;;;;;;11.99;72.80;100541.52;1729229;80;21335;-72
2022/10/25 04:01:26;;;;;;;15.70;14.00;;;;;;;12.02;72.86;100538.84;1751491;80;21224;-74
2022/10/25 04:03:52;;;;;;;15.70;14.00;;;;;;;12.07;72.91;100533.48;1745281;80;21136;-74
2022/10/25 04:06:19;;;;;;;17.47;14.37;;;;;;;12.13;72.98;100537.77;1757123;81;21327;-73
2022/10/25 04:08:46;;;;;;;16.57;14.83;;;;;;;12.19;73.01;100536.70;1726997;81;21280;-73
2022/10/25 04:11:14;;;;;;;15.63;13.60;;;;;;;12.25;73.04;100533.50;1779967;80;21238;-73
2022/10/25 04:13:42;;;;;;;14.83;13.03;;;;;;;12.32;73.03;100535.36;1750292;80;21799;-74
2022/10/25 04:16:08;;;;;;;16.57;14.40;;;;;;;12.35;73.04;100531.61;1756980;80;21366;-74
2022/10/25 04:18:36;;;;;;;17.63;14.53;;;;;;;12.32;72.97;100529.47;1756920;80;21364;-73
2022/10/25 04:21:04;;;;;;;16.53;14.43;;;;;;;12.29;73.07;100530.00;1781632;80;21774;-74
2022/10/25 04:23:32;;;;;;;15.13;13.50;;;;;;;12.29;73.08;100525.98;1756265;81;21299;-74
2022/10/25 04:25:59;;;;;;;17.63;15.27;;;;;;;12.29;73.14;100524.65;1787419;80;21241;-73
2022/10/25 04:28:25;;;;;;;16.37;14.60;;;;;;;12.27;73.14;100520.62;1736694;81;21370;-73
2022/10/25 04:30:53;;;;;;;16.83;15.03;;;;;;;12.27;73.19;100510.71;1775575;79;21332;-74
2022/10/25 04:33:20;;;;;;;19.07;15.13;;;;;;;12.28;73.20;100511.55;1745316;80;21284;-75
2022/10/25 04:35:55;;;;;;;16.70;14.40;;;;;;;12.32;73.33;100512.06;1788263;80;21582;-73
2022/10/25 04:38:22;;;;;;;18.90;16.00;;;;;;;12.39;73.28;100511.78;1728320;81;21811;-73
2022/10/25 04:40:58;;;;;;;18.07;14.77;;;;;;;12.38;73.26;100514.20;1761120;80;21329;-73
2022/10/25 04:43:27;;;;;;;18.93;16.03;;;;;;;12.39;73.26;100517.14;1741705;80;22249;-73
2022/10/25 04:45:54;;;;;;;17.63;14.67;;;;;;;12.41;73.20;100509.66;1756802;80;21175;-73
2022/10/25 04:48:21;;;;;;;17.73;15.83;;;;;;;12.39;73.15;100520.62;1755893;80;21276;-73
2022/10/25 04:50:47;;;;;;;18.23;15.10;;;;;;;12.35;73.18;100520.90;1742361;81;21894;-73
2022/10/25 04:53:14;;;;;;;18.87;15.40;;;;;;;12.39;73.29;100515.27;1760180;80;21413;-73
2022/10/25 04:55:40;;;;;;;19.17;16.03;;;;;;;12.39;73.20;100505.09;1738145;81;21132;-73
2022/10/25 04:58:09;;;;;;;18.63;16.63;;;;;;;12.32;73.27;100505.37;1756384;81;21278;-73
2022/10/25 05:00:37;;;;;;;19.03;16.20;;;;;;;12.36;73.41;100507.77;1756573;80;21176;-72
2022/10/25 05:03:04;;;;;;;19.67;16.67;;;;;;;12.47;73.48;100502.39;1773337;79;21519;-73
2022/10/25 05:05:30;;;;;;;20.00;16.77;;;;;;;12.58;73.55;100505.33;1778140;79;21659;-73
2022/10/25 05:07:57;;;;;;;18.73;15.63;;;;;;;12.71;73.54;100510.12;1750880;81;21887;-73
2022/10/25 05:10:24;;;;;;;19.63;15.77;;;;;;;12.81;73.46;100512.77;1761065;80;21272;-73
2022/10/25 05:12:53;;;;;;;19.57;15.70;;;;;;;12.87;73.40;100511.69;1777586;80;21934;-74
2022/10/25 05:15:19;;;;;;;20.33;16.80;;;;;;;12.98;73.35;100506.28;1753922;80;21367;-73
2022/10/25 05:17:47;;;;;;;18.47;16.30;;;;;;;13.02;73.20;100512.70;1787005;79;21399;-74
2022/10/25 05:20:15;;;;;;;20.33;16.97;;;;;;;13.08;73.17;100507.58;1789595;79;21353;-73
2022/10/25 05:22:41;;;;;;;18.67;16.27;;;;;;;13.18;73.07;100516.92;1751341;81;21793;-74
2022/10/25 05:25:08;;;;;;;21.07;17.70;;;;;;;13.27;72.98;100509.15;1756456;81;21340;-73
2022/10/25 05:27:37;;;;;;;21.10;17.50;;;;;;;13.35;72.81;100515.27;1743064;82;21317;-73
2022/10/25 05:30:06;;;;;;;18.23;16.07;;;;;;;13.36;72.58;100510.98;1827038;77;21336;-73
2022/10/25 05:32:35;;;;;;;19.47;16.50;;;;;;;13.36;72.46;100512.86;1823990;77;21332;-73
2022/10/25 05:35:01;;;;;;;20.03;16.27;;;;;;;13.34;72.37;100511.78;1829210;77;21230;-73
2022/10/25 05:37:28;;;;;;;22.40;18.13;;;;;;;13.41;72.41;100513.36;1751110;80;21226;-72
2022/10/25 05:39:55;;;;;;;19.83;17.57;;;;;;;13.43;72.34;100510.67;1786895;79;21330;-72
2022/10/25 05:42:22;;;;;;;21.50;18.70;;;;;;;13.47;72.35;100510.92;1755974;80;21318;-75
2022/10/25 05:44:50;;;;;;;23.37;17.87;;;;;;;13.53;72.37;100505.25;1787201;79;21274;-73
2022/10/25 05:47:17;;;;;;;21.33;18.37;;;;;;;13.57;72.27;100506.83;1735276;80;21781;-73
2022/10/25 05:49:43;;;;;;;21.50;18.57;;;;;;;13.56;72.18;100507.92;1748118;81;21356;-74
2022/10/25 05:52:12;;;;;;;22.33;18.40;;;;;;;13.61;72.22;100509.22;1770209;80;21250;-75
2022/10/25 05:54:40;;;;;;;21.93;19.00;;;;;;;13.64;72.13;100508.66;1744452;80;21780;-73
2022/10/25 05:57:07;;;;;;;18.73;16.70;;;;;;;13.61;72.01;100499.82;1756569;80;21372;-73
2022/10/25 05:59:34;;;;;;;22.10;18.07;;;;;;;13.63;72.05;100501.70;1783615;80;21381;-73
2022/10/25 06:02:01;;;;;;;21.07;17.00;;;;;;;13.67;72.05;100505.97;1751591;80;21375;-72
2022/10/25 06:04:28;;;;;;;21.30;17.33;;;;;;;13.78;72.14;100511.52;1783108;80;21350;-73
2022/10/25 06:06:56;;;;;;;19.93;16.60;;;;;;;13.90;72.09;100507.95;1763072;80;21322;-74
2022/10/25 06:09:23;;;;;;;21.13;17.63;;;;;;;14.05;71.47;100509.18;1769492;79;21272;-73
2022/10/25 06:11:52;;;;;;;19.87;17.57;;;;;;;14.16;72.12;100515.27;1771965;80;21469;-73
2022/10/25 06:14:18;;;;;;;19.00;16.93;;;;;;;14.16;72.12;100515.27;1770677;79;21402;-73
2022/10/25 06:16:46;;;;;;;21.47;17.20;;;;;;;14.24;71.82;100515.98;1763912;79;21411;-73
2022/10/25 06:19:14;;;;;;;20.47;16.17;;;;;;;14.38;71.78;100511.30;1767659;80;21419;-73
2022/10/25 06:21:43;;;;;;;19.23;16.13;;;;;;;14.46;71.47;100506.12;1772677;81;21479;-73
2022/10/25 06:24:10;;;;;;;19.93;16.30;;;;;;;14.49;71.16;100500.17;1770348;79;21545;-74
2022/10/25 06:26:37;;;;;;;18.67;16.03;;;;;;;14.49;70.92;100511.47;1761303;79;21762;-74
2022/10/25 06:29:04;;;;;;;16.63;14.83;;;;;;;14.56;70.89;100507.94;1771139;80;21564;-73
2022/10/25 06:31:31;;;;;;;17.37;15.37;;;;;;;14.60;70.04;100496.86;1787498;79;21439;-74
2022/10/25 06:34:00;;;;;;;18.93;15.67;;;;;;;14.60;70.04;100496.86;1755705;80;22234;-73
2022/10/25 06:36:27;;;;;;;17.83;14.60;;;;;;;14.69;70.16;100493.02;1781809;80;22332;-73
2022/10/25 06:38:53;;;;;;;16.80;14.97;;;;;;;14.69;70.16;100493.02;1745573;80;21649;-73
2022/10/25 06:41:26;;;;;;;17.93;15.87;;;;;;;14.80;70.25;100493.70;1760571;79;21963;-73
2022/10/25 06:43:53;;;;;;;17.00;15.07;;;;;;;14.80;70.25;100493.70;1758198;80;22094;-73
2022/10/25 06:46:28;;;;;;;18.77;14.73;;;;;;;14.92;69.99;100490.07;1733373;81;21780;-74
2022/10/25 06:48:56;;;;;;;18.67;14.67;;;;;;;15.04;69.91;100487.78;1741491;80;21869;-74
2022/10/25 06:51:23;;;;;;;16.83;15.03;;;;;;;15.17;69.66;100491.10;1778228;80;21744;-73
2022/10/25 06:53:55;;;;;;;19.33;14.60;;;;;;;15.28;69.42;100493.11;1788036;80;21966;-74
2022/10/25 06:56:22;;;;;;;18.00;14.35;;;;;;;15.42;69.19;100498.56;1753684;80;21705;-73
2022/10/25 06:58:51;;;;;;;16.23;14.07;;;;;;;15.55;68.82;100487.07;1767883;79;21086;-74
2022/10/25 07:01:21;;;;;;;16.45;14.47;;;;;;;15.69;68.35;100487.16;1769165;80;21716;-73
2022/10/25 07:03:49;;;;;;;16.70;13.80;;;;;;;15.79;67.82;100488.34;1763702;80;21038;-72
2022/10/25 07:06:21;;;;;;;17.60;14.60;;;;;;;15.91;67.45;100494.09;1755313;80;21446;-73
2022/10/25 07:08:54;;;;;;;18.07;13.63;;;;;;;16.03;67.07;100490.16;1747830;80;22253;-73
2022/10/25 07:11:24;;;;;;;17.73;13.50;;;;;;;16.13;66.59;100488.08;1774426;80;21717;-74
2022/10/25 07:13:54;;;;;;;16.57;13.80;;;;;;;16.26;65.65;100481.13;1754824;80;21815;-74
2022/10/25 07:16:21;;;;;;;19.53;15.40;;;;;;;16.26;65.65;100481.13;1733153;82;21110;-73
2022/10/25 07:18:47;;;;;;;18.10;14.60;;;;;;;16.29;65.35;100475.14;1765576;79;21129;-74
2022/10/25 07:21:20;;;;;;;16.67;13.93;;;;;;;16.31;65.00;100482.37;1778800;80;20949;-73
2022/10/25 07:23:46;;;;;;;20.07;13.80;;;;;;;16.36;64.80;100477.45;1774682;80;21629;-73
2022/10/25 07:26:25;;;;;;;15.93;13.47;;;;;;;16.42;64.42;100481.66;1764057;80;21134;-74
2022/10/25 07:28:55;;;;;;;17.40;13.77;;;;;;;16.50;64.24;100478.26;1769994;80;21002;-74
2022/10/25 07:31:42;;;;;;;16.20;13.40;;;;;;;16.63;64.01;100474.77;1746882;80;21160;-73
2022/10/25 07:34:12;;;;;;;17.03;12.80;;;;;;;16.69;63.42;100460.64;1771526;80;21810;-73
2022/10/25 07:36:39;;;;;;;15.87;13.60;;;;;;;16.75;63.23;100457.30;1775462;78;21048;-73
2022/10/25 07:39:07;;;;;;;15.90;13.37;;;;;;;16.84;63.13;100460.34;1783971;80;21443;-73
2022/10/25 07:41:35;;;;;;;18.87;13.10;;;;;;;16.95;62.80;100456.91;1738165;82;21458;-72
2022/10/25 07:44:02;;;;;;;15.77;13.00;;;;;;;17.06;62.59;100462.89;1764622;78;21195;-74
2022/10/25 07:46:30;;;;;;;15.57;13.10;;;;;;;17.16;62.29;100457.82;1788154;80;21051;-73
2022/10/25 07:48:56;;;;;;;15.70;13.17;;;;;;;17.25;61.84;100460.84;1788753;80;21649;-75
2022/10/25 07:51:23;;;;;;;15.27;12.97;;;;;;;17.34;61.59;100462.26;1786825;78;21034;-73
2022/10/25 07:53:52;;;;;;;15.83;12.77;;;;;;;17.45;61.31;100460.15;1757394;80;21066;-73
2022/10/25 07:56:18;;;;;;;16.53;13.67;;;;;;;17.53;60.99;100458.84;1758471;80;21813;-72
2022/10/25 07:58:46;;;;;;;16.60;12.93;;;;;;;17.64;60.66;100459.98;1787909;79;21043;-71
2022/10/25 08:01:20;;;;;;;17.47;12.67;;;;;;;17.74;60.32;100452.98;1734204;81;21057;-73
2022/10/25 08:03:46;;;;;;;15.63;12.37;;;;;;;17.80;59.99;100454.47;1758439;80;21075;-73
2022/10/25 08:06:13;;;;;;;14.23;12.37;;;;;;;17.88;59.84;100451.59;1758340;81;21039;-71
2022/10/25 08:08:41;;;;;;;17.43;12.80;;;;;;;17.95;59.63;100450.05;1788862;80;22264;-72
2022/10/25 08:11:08;;;;;;;17.43;13.13;;;;;;;18.04;59.46;100456.30;1757260;80;21004;-74
2022/10/25 08:13:36;;;;;;;16.23;12.27;;;;;;;18.12;59.21;100450.70;1742611;79;21078;-71
2022/10/25 08:16:03;;;;;;;16.80;12.50;;;;;;;18.17;58.89;100452.48;1768804;81;21070;-72
2022/10/25 08:18:30;;;;;;;13.33;11.43;;;;;;;18.26;58.67;100449.25;1783980;80;21090;-72
2022/10/25 08:20:57;;;;;;;15.07;12.33;;;;;;;18.33;58.34;100449.63;1784575;80;21762;-73
2022/10/25 08:23:24;;;;;;;15.70;12.67;;;;;;;18.38;57.96;100445.41;1783768;79;21070;-73
2022/10/25 08:25:50;;;;;;;16.13;11.97;;;;;;;18.45;57.71;100442.25;1784226;80;21055;-73
2022/10/25 08:28:19;;;;;;;17.83;12.80;;;;;;;18.53;57.45;100435.30;1764428;79;20978;-72
2022/10/25 08:30:46;;;;;;;14.40;12.53;;;;;;;18.60;57.16;100435.64;1789229;80;21019;-72
2022/10/25 08:33:12;;;;;;;13.53;11.50;;;;;;;18.63;57.12;100433.11;1757701;81;21419;-73
2022/10/25 08:35:39;;;;;;;16.20;12.07;;;;;;;18.67;56.71;100426.51;1788943;80;21066;-74
2022/10/25 08:38:06;;;;;;;14.03;12.13;;;;;;;18.61;56.51;100420.44;1756137;81;21217;-71
2022/10/25 08:41:08;;;;;;;13.03;10.63;;;;;;;18.57;56.57;100425.45;1757952;81;20979;-72
2022/10/25 08:44:11;;;;;;;14.97;10.80;;;;;;;18.55;56.48;100429.01;1788878;80;21050;-73
2022/10/25 08:46:58;;;;;;;13.20;10.53;;;;;;;18.53;56.60;100428.55;1756321;81;21549;-73
2022/10/25 08:49:36;;;;;;;15.83;11.17;;;;;;;18.55;56.40;100424.39;1757937;81;21051;-72
2022/10/25 08:52:03;;;;;;;16.60;10.90;;;;;;;18.56;56.31;100428.72;1790680;80;21019;-72
2022/10/25 08:54:37;;;;;;;14.47;10.83;;;;;;;18.62;56.33;100432.84;1756315;81;21070;-72
2022/10/25 08:57:23;;;;;;;12.83;10.70;;;;;;;18.66;56.11;100433.04;1757942;81;21015;-72
2022/10/25 08:59:59;;;;;;;15.30;11.03;;;;;;;18.69;55.99;100433.73;1789252;80;21498;-72
2022/10/25 09:02:56;;;;;;;14.40;11.50;;;;;;;18.72;55.91;100433.96;1755017;81;20999;-72
2022/10/25 09:05:31;;;;;;;13.50;10.63;;;;;;;18.75;55.97;100435.22;1758149;81;20936;-73
2022/10/25 09:08:22;;;;;;;13.80;10.60;;;;;;;18.79;55.97;100434.86;1788999;80;20936;-73
2022/10/25 09:11:24;;;;;;;12.83;10.23;;;;;;;18.81;55.90;100440.73;1755009;80;21012;-72
2022/10/25 09:14:26;;;;;;;13.13;9.93;;;;;;;18.81;55.79;100437.23;1788468;80;21052;-72
2022/10/25 09:17:12;;;;;;;12.27;9.97;;;;;;;18.78;55.83;100433.23;1757414;80;21433;-74
2022/10/25 09:19:59;;;;;;;14.03;10.27;;;;;;;18.76;55.95;100426.58;1757154;81;21019;-73
2022/10/25 09:22:32;;;;;;;11.73;9.40;;;;;;;18.76;55.99;100430.07;1757763;81;21570;-73
2022/10/25 09:25:22;;;;;;;12.07;9.67;;;;;;;18.77;55.88;100425.45;1761052;78;21047;-72
2022/10/25 09:28:05;;;;;;;11.77;9.80;;;;;;;18.77;55.87;100419.48;1731219;80;21038;-74
2022/10/25 09:30:39;;;;;;;14.10;9.65;;;;;;;18.76;55.96;100411.69;1726182;81;21601;-73
2022/10/25 09:33:11;;;;;;;17.07;9.57;;;;;;;18.76;56.01;100400.31;1736681;80;21038;-72
2022/10/25 09:35:57;;;;;;;15.53;10.37;;;;;;;18.73;55.95;100396.31;1743682;80;21054;-73
2022/10/25 09:38:44;;;;;;;14.90;10.30;;;;;;;18.73;55.94;100395.53;1788284;78;21577;-73
2022/10/25 09:41:34;;;;;;;13.83;10.43;;;;;;;18.72;55.98;100392.03;1727736;82;21424;-73
2022/10/25 09:44:37;;;;;;;13.57;9.33;;;;;;;18.74;56.08;100381.66;1757589;81;21007;-72
2022/10/25 09:47:15;;;;;;;12.15;9.23;;;;;;;18.78;56.09;100383.74;1726159;83;21018;-73
2022/10/25 09:50:02;;;;;;;13.17;9.27;;;;;;;18.79;56.06;100384.80;1757808;81;21034;-72
2022/10/25 09:52:44;;;;;;;14.80;9.53;;;;;;;18.79;56.06;100387.50;1730431;80;21072;-73
2022/10/25 09:55:22;;;;;;;13.13;9.45;;;;;;;18.79;56.24;100384.80;1758168;81;21092;-73
2022/10/25 09:57:50;;;;;;;11.57;9.07;;;;;;;18.86;56.10;100382.41;1778726;78;21086;-74
2022/10/25 10:00:17;;;;;;;11.40;9.20;;;;;;;18.85;56.15;100382.16;1788981;80;21423;-73
2022/10/25 10:02:43;;;;;;;11.97;8.53;;;;;;;18.79;56.26;100384.80;1788140;78;21079;-72
2022/10/25 10:05:16;;;;;;;11.90;8.90;;;;;;;18.77;56.36;100385.66;1788404;80;21498;-72
2022/10/25 10:07:44;;;;;;;;;;;;;;;18.78;56.43;100380.48;1791345;80;21091;-73
2022/10/25 10:10:13;;;;;;;13.77;9.00;;;;;;;18.79;56.65;100380.73;1787938;78;20195;-72
2022/10/25 10:12:55;;;;;;;12.30;8.75;;;;;;;18.68;56.99;100383.45;1789392;80;21525;-73
2022/10/25 10:15:43;;;;;;;11.77;8.73;;;;;;;18.79;56.94;100378.03;1789778;78;21027;-72
2022/10/25 10:18:32;;;;;;;11.13;8.67;;;;;;;18.78;56.88;100378.33;1748188;80;21106;-73
2022/10/25 10:21:13;;;;;;;11.23;8.70;;;;;;;18.74;56.99;100383.58;1788870;78;21793;-72
2022/10/25 10:23:55;;;;;;;10.27;8.17;;;;;;;18.68;57.05;100388.30;1788905;80;21039;-72
2022/10/25 10:26:35;;;;;;;12.43;9.10;;;;;;;18.64;57.18;100387.91;1781892;78;21066;-73
2022/10/25 10:29:11;;;;;;;10.53;8.50;;;;;;;18.65;57.35;100389.49;1788799;80;21543;-72
2022/10/25 10:31:42;;;;;;;9.87;8.43;;;;;;;18.65;57.38;100385.44;1770029;80;20967;-73
2022/10/25 10:34:33;;;;;;;12.00;8.38;;;;;;;18.63;57.45;100376.86;1788746;80;21239;-73
2022/10/25 10:37:14;;;;;;;13.03;9.35;;;;;;;18.60;57.62;100378.84;1757685;81;21045;-72
2022/10/25 10:40:00;;;;;;;12.00;8.63;;;;;;;18.57;57.87;100375.41;1786859;80;21004;-71
2022/10/25 10:42:40;;;;;;;10.60;8.13;;;;;;;18.47;58.05;100379.99;1727379;83;21039;-72
2022/10/25 10:45:14;;;;;;;11.87;8.60;;;;;;;18.37;58.31;100377.58;1757583;81;21003;-74
2022/10/25 10:47:55;;;;;;;11.10;8.03;;;;;;;18.30;58.50;100375.89;1730067;81;21197;-74
2022/10/25 10:50:27;;;;;;;9.43;7.72;;;;;;;18.30;58.71;100377.80;1787683;80;21078;-73
2022/10/25 10:53:05;;;;;;;10.27;7.93;;;;;;;18.27;58.80;100375.16;1757398;81;21082;-73
2022/10/25 10:55:47;;;;;;;11.33;8.63;;;;;;;18.24;58.94;100377.13;1788561;79;20999;-72
2022/10/25 10:58:18;;;;;;;10.25;8.30;;;;;;;18.21;59.06;100376.41;1757955;81;21317;-71
2022/10/25 11:00:56;;;;;;;10.27;8.27;;;;;;;18.18;59.18;100368.36;1789238;80;21194;-72
2022/10/25 11:03:44;;;;;;;10.83;8.27;;;;;;;18.18;59.32;100365.66;1757461;81;21042;-72
2022/10/25 11:06:17;;;;;;;10.20;8.30;;;;;;;18.16;59.44;100369.77;1788436;79;20988;-72
2022/10/25 11:08:47;;;;;;;11.60;8.50;;;;;;;18.14;59.52;100366.61;1757780;81;21042;-72
2022/10/25 11:11:23;;;;;;;11.27;7.77;;;;;;;18.14;59.62;100364.69;1788207;79;21120;-72
2022/10/25 11:13:55;;;;;;;10.53;8.30;;;;;;;18.13;59.75;100359.58;1757547;80;21553;-72
2022/10/25 11:16:53;;;;;;;13.60;8.13;;;;;;;18.11;59.94;100359.12;1756214;81;21488;-73
2022/10/25 11:19:51;;;;;;;9.73;8.27;;;;;;;18.11;60.04;100361.82;1788807;80;21111;-72
2022/10/25 11:22:39;;;;;;;10.80;8.27;;;;;;;18.10;60.19;100357.50;1691055;84;21109;-71
2022/10/25 11:25:44;;;;;;;10.60;8.00;;;;;;;18.11;60.28;100355.86;1758337;81;21542;-72
2022/10/25 11:28:41;;;;;;;11.27;7.80;;;;;;;18.12;60.38;100352.59;1756122;81;22120;-73
2022/10/25 11:31:37;;;;;;;9.90;8.00;;;;;;;18.17;60.36;100353.82;1788749;80;21526;-72
2022/10/25 11:34:28;;;;;;;10.17;8.10;;;;;;;18.21;60.28;100354.22;1788858;80;20968;-73
2022/10/25 11:37:12;;;;;;;12.13;8.13;;;;;;;18.27;60.30;100358.94;1759907;81;20971;-72
2022/10/25 11:39:49;;;;;;;10.40;8.13;;;;;;;18.31;60.28;100351.79;1789260;80;21038;-73